BIND weather

Nýjidalur Airport
Nýjidalur, Southern Region, Iceland

Public forecast

Using degrees Celsius for public forecast. Weather courtesy of forecast.io.

METAR (pilot weather report)

Closest report is Akureyri Airport, 56.4 nm (104.5 km) N. Retrieved 2019/04/19 00:00 UTC (53 minutes ago):

BIAR 190000Z 17018KT CAVOK 10/02 Q1008

TAF (pilot weather forecast)

Closest forecast is Akureyri Airport, 56.4 nm (104.5 km) N. Retrieved 2019/04/19 03:12 UTC (0 seconds ago):

TAF BIAR 190110Z 1903/2003 19012KT 9999 SCT050 TX13/1915Z TN06/1906Z TEMPO 1903/2003 22020G30KT